createdAt,value
2017-11-17T00:02:22.976Z,11.93
2017-11-17T00:04:51.276Z,11.33
2017-11-17T00:07:19.550Z,12.40
2017-11-17T00:09:48.476Z,12.60
2017-11-17T00:12:16.743Z,12.97
2017-11-17T00:14:44.997Z,13.37
2017-11-17T00:17:13.758Z,12.83
2017-11-17T00:19:42.247Z,12.53
2017-11-17T00:22:10.470Z,13.30
2017-11-17T00:24:39.569Z,13.10
2017-11-17T00:27:07.879Z,12.50
2017-11-17T00:29:36.149Z,12.37
2017-11-17T00:32:04.437Z,12.70
2017-11-17T00:34:32.751Z,12.53
2017-11-17T00:37:01.086Z,12.90
2017-11-17T00:39:29.356Z,12.53
2017-11-17T00:41:57.682Z,12.57
2017-11-17T00:44:26.738Z,14.10
2017-11-17T00:46:55.021Z,11.93
2017-11-17T00:49:23.320Z,12.83
2017-11-17T00:51:51.584Z,10.50
2017-11-17T00:54:19.976Z,12.30
2017-11-17T00:56:48.225Z,12.67
2017-11-17T00:59:16.518Z,11.63
2017-11-17T01:01:44.771Z,12.17
2017-11-17T01:04:13.049Z,13.10
2017-11-17T01:06:41.312Z,12.13
2017-11-17T01:09:09.599Z,13.43
2017-11-17T01:11:37.866Z,11.93
2017-11-17T01:14:06.177Z,12.27
2017-11-17T01:16:34.452Z,12.57
2017-11-17T01:19:02.733Z,12.07
2017-11-17T01:21:31.030Z,11.90
2017-11-17T01:23:59.418Z,12.90
2017-11-17T01:26:27.720Z,12.77
2017-11-17T01:28:55.982Z,11.60
2017-11-17T01:31:24.292Z,11.83
2017-11-17T01:33:52.558Z,11.00
2017-11-17T01:36:20.861Z,11.50
2017-11-17T01:38:49.829Z,11.57
2017-11-17T01:41:18.249Z,11.93
2017-11-17T01:43:46.508Z,11.50
2017-11-17T01:46:14.869Z,11.80
2017-11-17T01:48:43.170Z,10.90
2017-11-17T01:51:11.422Z,11.87
2017-11-17T01:53:39.729Z,11.93
2017-11-17T01:56:07.997Z,12.73
2017-11-17T01:58:36.294Z,12.00
2017-11-17T02:01:04.564Z,11.40
2017-11-17T02:03:33.667Z,11.97
2017-11-17T02:06:01.969Z,11.77
2017-11-17T02:08:30.313Z,12.30
2017-11-17T02:10:58.597Z,11.70
2017-11-17T02:13:26.880Z,12.20
2017-11-17T02:15:55.167Z,12.00
2017-11-17T02:18:23.442Z,12.37
2017-11-17T02:20:51.741Z,10.60
2017-11-17T02:23:19.985Z,11.67
2017-11-17T02:25:48.263Z,12.83
2017-11-17T02:28:16.516Z,13.53
2017-11-17T02:30:45.413Z,11.50
2017-11-17T02:33:13.685Z,12.10
2017-11-17T02:35:41.972Z,12.67
2017-11-17T02:38:10.246Z,11.67
2017-11-17T02:40:38.520Z,12.20
2017-11-17T02:43:06.806Z,12.33
2017-11-17T02:45:35.082Z,12.40
2017-11-17T02:48:03.550Z,12.30
2017-11-17T02:50:31.787Z,12.53
2017-11-17T02:53:00.093Z,13.03
2017-11-17T02:55:28.373Z,13.40
2017-11-17T02:57:56.686Z,13.17
2017-11-17T03:00:24.944Z,13.70
2017-11-17T03:02:53.242Z,13.30
2017-11-17T03:05:21.485Z,12.50
2017-11-17T03:07:49.765Z,13.30
2017-11-17T03:10:18.076Z,13.00
2017-11-17T03:12:46.658Z,11.70
2017-11-17T03:15:14.981Z,13.43
2017-11-17T03:17:43.210Z,12.33
2017-11-17T03:20:11.500Z,12.80
2017-11-17T03:22:40.260Z,11.90
2017-11-17T03:25:08.544Z,12.17
2017-11-17T03:27:36.805Z,13.23
2017-11-17T03:30:05.084Z,12.10
2017-11-17T03:32:33.332Z,12.90
2017-11-17T03:35:01.632Z,13.07
2017-11-17T03:37:29.927Z,12.67
2017-11-17T03:39:58.230Z,12.47
2017-11-17T03:42:26.497Z,12.20
2017-11-17T03:44:54.771Z,13.07
2017-11-17T03:47:23.034Z,13.73
2017-11-17T03:49:51.333Z,12.53
2017-11-17T03:52:19.636Z,14.27
2017-11-17T03:54:47.889Z,13.17
2017-11-17T03:57:16.183Z,13.53
2017-11-17T03:59:44.428Z,13.87
2017-11-17T04:02:12.712Z,13.10
2017-11-17T04:04:41.017Z,13.33
2017-11-17T04:07:09.317Z,14.37
2017-11-17T04:09:37.573Z,13.03
2017-11-17T04:12:05.866Z,13.70
2017-11-17T04:14:34.909Z,14.87
2017-11-17T04:17:03.199Z,14.33
2017-11-17T04:19:31.488Z,14.37
2017-11-17T04:22:00.046Z,13.63
2017-11-17T04:24:28.327Z,14.53
2017-11-17T04:26:57.698Z,14.07
2017-11-17T04:29:26.882Z,13.70
2017-11-17T04:31:56.153Z,12.73
2017-11-17T04:34:24.444Z,13.50
2017-11-17T04:36:53.416Z,13.20
2017-11-17T04:39:21.668Z,13.93
2017-11-17T04:41:49.979Z,13.20
2017-11-17T04:44:18.250Z,13.80
2017-11-17T04:46:48.423Z,13.50
2017-11-17T04:49:18.494Z,13.50
2017-11-17T04:51:46.770Z,13.37
2017-11-17T04:54:15.062Z,13.80
2017-11-17T04:56:43.367Z,13.77
2017-11-17T04:59:11.643Z,13.60
2017-11-17T05:01:39.966Z,13.00
2017-11-17T05:04:08.220Z,13.70
2017-11-17T05:06:36.512Z,13.63
2017-11-17T05:09:04.774Z,14.03
2017-11-17T05:11:33.036Z,14.20
2017-11-17T05:14:01.323Z,14.00
2017-11-17T05:16:29.662Z,14.70
2017-11-17T05:18:57.945Z,14.20
2017-11-17T05:21:26.199Z,14.37
2017-11-17T05:23:54.500Z,14.07
2017-11-17T05:26:22.800Z,13.17
2017-11-17T05:28:51.085Z,14.83
2017-11-17T05:31:19.390Z,13.40
2017-11-17T05:33:47.640Z,13.43
2017-11-17T05:36:16.897Z,13.43
2017-11-17T05:38:45.241Z,13.17
2017-11-17T05:41:13.524Z,14.83
2017-11-17T05:43:41.784Z,14.47
2017-11-17T05:46:10.086Z,14.20
2017-11-17T05:48:38.340Z,14.60
2017-11-17T05:51:06.725Z,14.17
2017-11-17T05:53:37.256Z,13.60
2017-11-17T05:56:05.542Z,13.80
2017-11-17T05:58:33.808Z,14.73
2017-11-17T06:01:09.216Z,15.70
2017-11-17T06:03:43.218Z,14.97
2017-11-17T06:06:11.563Z,14.67
2017-11-17T06:08:39.815Z,16.00
2017-11-17T06:11:08.090Z,14.60
2017-11-17T06:13:36.366Z,14.33
2017-11-17T06:16:05.217Z,15.67
2017-11-17T06:18:33.492Z,15.73
2017-11-17T06:21:01.829Z,16.00
2017-11-17T06:23:30.204Z,15.13
2017-11-17T06:25:58.466Z,15.07
2017-11-17T06:28:26.753Z,15.40
2017-11-17T06:30:55.005Z,13.60
2017-11-17T06:33:23.424Z,14.50
2017-11-17T06:35:51.717Z,14.20
2017-11-17T06:38:19.982Z,16.67
2017-11-17T06:40:48.228Z,16.67
2017-11-17T06:43:16.619Z,16.67
2017-11-17T06:45:45.338Z,16.17
2017-11-17T06:48:13.617Z,17.20
2017-11-17T06:50:41.887Z,17.37
2017-11-17T06:53:10.236Z,17.03
2017-11-17T06:55:38.478Z,18.50
2017-11-17T06:58:07.205Z,17.27
2017-11-17T07:00:35.493Z,16.03
2017-11-17T07:03:03.746Z,17.37
2017-11-17T07:05:32.085Z,17.53
2017-11-17T07:08:00.353Z,17.90
2017-11-17T07:10:29.840Z,17.40
2017-11-17T07:12:58.153Z,18.10
2017-11-17T07:15:26.465Z,17.33
2017-11-17T07:17:54.733Z,18.50
2017-11-17T07:20:23.012Z,17.80
2017-11-17T07:22:51.318Z,19.70
2017-11-17T07:25:19.570Z,19.97
2017-11-17T07:27:47.850Z,19.30
2017-11-17T07:30:16.108Z,19.67
2017-11-17T07:32:44.389Z,18.83
2017-11-17T07:35:12.649Z,18.10
2017-11-17T07:37:40.989Z,20.37
2017-11-17T07:40:09.361Z,18.80
2017-11-17T07:42:37.692Z,18.37
2017-11-17T07:45:05.941Z,17.20
2017-11-17T07:47:34.245Z,18.73
2017-11-17T07:50:02.584Z,18.33
2017-11-17T07:52:30.833Z,19.23
2017-11-17T07:54:59.159Z,18.60
2017-11-17T07:57:27.437Z,18.80
2017-11-17T07:59:55.737Z,18.60
2017-11-17T08:02:24.015Z,19.20
2017-11-17T08:04:52.279Z,18.60
2017-11-17T08:07:20.594Z,18.83
2017-11-17T08:09:48.888Z,20.07
2017-11-17T08:12:17.189Z,19.37
2017-11-17T08:14:45.465Z,19.73
2017-11-17T08:17:25.365Z,22.40
2017-11-17T08:19:53.977Z,20.67
2017-11-17T08:22:22.281Z,20.57
2017-11-17T08:24:50.617Z,20.20
2017-11-17T08:27:18.913Z,20.30
2017-11-17T08:29:47.301Z,20.70
2017-11-17T08:32:15.551Z,20.60
2017-11-17T08:34:44.692Z,19.70
2017-11-17T08:37:13.061Z,20.23
2017-11-17T08:39:41.330Z,22.10
2017-11-17T08:42:09.709Z,20.83
2017-11-17T08:44:37.995Z,21.20
2017-11-17T08:47:06.350Z,20.77
2017-11-17T08:49:34.622Z,20.50
2017-11-17T08:52:02.920Z,21.60
2017-11-17T08:54:31.206Z,20.93
2017-11-17T08:56:59.476Z,22.87
2017-11-17T08:59:27.798Z,22.53
2017-11-17T09:01:56.052Z,24.97
2017-11-17T09:04:24.385Z,22.67
2017-11-17T09:06:52.621Z,21.07
2017-11-17T09:09:20.937Z,24.80
2017-11-17T09:11:50.676Z,23.97
2017-11-17T09:14:19.628Z,23.20
2017-11-17T09:16:47.928Z,23.37
2017-11-17T09:19:16.353Z,22.70
2017-11-17T09:21:44.656Z,24.20
2017-11-17T09:24:12.965Z,23.17
2017-11-17T09:26:41.293Z,23.93
2017-11-17T09:29:09.614Z,25.37
2017-11-17T09:31:37.878Z,25.17
2017-11-17T09:34:06.140Z,24.00
2017-11-17T09:36:34.479Z,24.70
2017-11-17T09:39:02.742Z,25.30
2017-11-17T09:41:31.054Z,23.27
2017-11-17T09:43:59.325Z,23.40
2017-11-17T09:46:27.649Z,24.23
2017-11-17T09:48:55.934Z,24.77
2017-11-17T09:51:24.265Z,23.10
2017-11-17T09:53:52.513Z,22.60
2017-11-17T09:56:21.897Z,23.53
2017-11-17T09:58:50.128Z,24.60
2017-11-17T10:01:18.474Z,24.27
2017-11-17T10:03:46.768Z,25.50
2017-11-17T10:06:15.210Z,22.73
2017-11-17T10:08:43.470Z,23.77
2017-11-17T10:11:11.779Z,24.20
2017-11-17T10:13:40.093Z,24.43
2017-11-17T10:16:08.356Z,24.10
2017-11-17T10:18:36.652Z,24.33
2017-11-17T10:21:04.922Z,24.17
2017-11-17T10:23:33.303Z,22.93
2017-11-17T10:26:01.565Z,24.10
2017-11-17T10:28:29.885Z,23.90
2017-11-17T10:30:58.196Z,22.13
2017-11-17T10:33:26.593Z,23.57
2017-11-17T10:35:55.232Z,22.33
2017-11-17T10:38:23.539Z,23.60
2017-11-17T10:40:51.862Z,21.27
2017-11-17T10:43:20.098Z,23.70
2017-11-17T10:45:48.422Z,22.03
2017-11-17T10:48:16.729Z,21.17
2017-11-17T10:50:45.361Z,20.63
2017-11-17T10:53:13.650Z,20.50
2017-11-17T10:55:41.952Z,21.20
2017-11-17T10:58:10.265Z,21.40
2017-11-17T11:00:38.521Z,21.97
2017-11-17T11:03:06.810Z,21.37
2017-11-17T11:05:35.096Z,22.37
2017-11-17T11:08:03.443Z,22.03
2017-11-17T11:10:38.464Z,23.43
2017-11-17T11:13:07.962Z,22.20
2017-11-17T11:15:37.277Z,22.60
2017-11-17T11:18:05.599Z,25.23
2017-11-17T11:20:33.855Z,24.23
2017-11-17T11:23:02.168Z,25.40
2017-11-17T11:25:31.104Z,23.90
2017-11-17T11:27:59.416Z,25.27
2017-11-17T11:30:27.653Z,23.13
2017-11-17T11:32:56.351Z,24.27
2017-11-17T11:35:24.610Z,25.07
2017-11-17T11:37:52.881Z,24.80
2017-11-17T11:40:21.171Z,23.93
2017-11-17T11:42:49.469Z,22.30
2017-11-17T11:45:17.908Z,27.10
2017-11-17T11:47:46.179Z,24.07
2017-11-17T11:50:14.607Z,24.27
2017-11-17T11:52:42.863Z,24.60
2017-11-17T11:55:11.154Z,23.60
2017-11-17T11:57:39.547Z,23.67
2017-11-17T12:00:07.872Z,25.13
2017-11-17T12:02:36.112Z,23.60
2017-11-17T12:05:04.529Z,23.27
2017-11-17T12:07:32.875Z,22.00
2017-11-17T12:10:01.180Z,21.83
2017-11-17T12:12:29.456Z,20.40
2017-11-17T12:14:57.713Z,21.60
2017-11-17T12:17:26.010Z,20.20
2017-11-17T12:19:54.357Z,21.87
2017-11-17T12:22:22.692Z,24.43
2017-11-17T12:24:50.953Z,21.63
2017-11-17T12:27:19.218Z,19.90
2017-11-17T12:29:47.485Z,20.07
2017-11-17T12:32:15.781Z,22.70
2017-11-17T12:34:44.177Z,21.20
2017-11-17T12:37:12.477Z,20.00
2017-11-17T12:39:40.737Z,19.10
2017-11-17T12:42:09.004Z,20.70
2017-11-17T12:44:37.525Z,19.03
2017-11-17T12:47:05.787Z,19.40
2017-11-17T12:49:34.127Z,20.60
2017-11-17T12:52:02.394Z,24.17
2017-11-17T12:54:30.766Z,22.40
2017-11-17T12:56:59.061Z,21.00
2017-11-17T12:59:27.336Z,20.10
2017-11-17T13:01:55.663Z,20.80
2017-11-17T13:04:23.927Z,18.47
2017-11-17T13:06:53.167Z,21.47
2017-11-17T13:09:21.443Z,19.27
2017-11-17T13:11:49.917Z,20.43
2017-11-17T13:14:18.136Z,18.80
2017-11-17T13:16:46.481Z,19.67
2017-11-17T13:19:14.758Z,19.90
2017-11-17T13:21:43.086Z,21.33
2017-11-17T13:24:11.338Z,21.70
2017-11-17T13:26:39.613Z,19.57
2017-11-17T13:29:08.494Z,20.80
2017-11-17T13:31:36.748Z,19.77
2017-11-17T13:34:05.485Z,19.50
2017-11-17T13:36:33.764Z,20.20
2017-11-17T13:39:02.979Z,20.07
2017-11-17T13:41:31.265Z,19.70
2017-11-17T13:43:59.568Z,19.70
2017-11-17T13:46:27.868Z,19.17
2017-11-17T13:48:56.183Z,22.53
2017-11-17T13:51:24.435Z,21.30
2017-11-17T13:53:52.695Z,21.83
2017-11-17T13:56:21.009Z,21.50
2017-11-17T13:58:49.377Z,20.57
2017-11-17T14:01:17.662Z,19.90
2017-11-17T14:03:45.947Z,21.20
2017-11-17T14:06:14.888Z,19.77
2017-11-17T14:08:43.156Z,18.50
2017-11-17T14:11:11.437Z,18.90
2017-11-17T14:13:39.745Z,18.80
2017-11-17T14:16:07.995Z,17.73
2017-11-17T14:18:36.277Z,18.43
2017-11-17T14:21:04.569Z,19.73
2017-11-17T14:23:33.121Z,18.10
2017-11-17T14:26:01.518Z,16.70
2017-11-17T14:28:29.807Z,17.60
2017-11-17T14:30:58.088Z,18.97
2017-11-17T14:33:26.415Z,19.50
2017-11-17T14:35:54.633Z,17.97
2017-11-17T14:38:22.921Z,19.07
2017-11-17T14:40:51.169Z,18.37
2017-11-17T14:43:19.506Z,17.57
2017-11-17T14:45:47.768Z,16.57
2017-11-17T14:48:16.047Z,17.33
2017-11-17T14:50:44.331Z,19.10
2017-11-17T14:53:12.613Z,18.27
2017-11-17T14:55:40.982Z,17.47
2017-11-17T14:58:09.245Z,18.27
2017-11-17T15:00:37.520Z,18.33
2017-11-17T15:03:05.779Z,18.73
2017-11-17T15:05:34.068Z,18.10
2017-11-17T15:08:02.355Z,19.07
2017-11-17T15:10:30.680Z,18.40
2017-11-17T15:12:58.933Z,18.53
2017-11-17T15:15:27.212Z,18.83
2017-11-17T15:17:55.477Z,24.13
2017-11-17T15:20:24.548Z,20.90
2017-11-17T15:22:52.825Z,20.17
2017-11-17T15:25:21.127Z,19.87
2017-11-17T15:27:49.408Z,19.57
2017-11-17T15:30:17.705Z,18.47
2017-11-17T15:32:46.056Z,18.27
2017-11-17T15:35:14.439Z,18.23
2017-11-17T15:37:42.682Z,17.27
2017-11-17T15:40:10.945Z,17.30
2017-11-17T15:42:40.029Z,18.33
2017-11-17T15:45:08.300Z,18.80
2017-11-17T15:47:36.603Z,20.33
2017-11-17T15:50:04.894Z,17.47
2017-11-17T15:52:33.198Z,18.20
2017-11-17T15:55:01.572Z,18.40
2017-11-17T15:57:29.853Z,18.17
2017-11-17T15:59:58.230Z,19.40
2017-11-17T16:02:26.488Z,18.33
2017-11-17T16:04:54.753Z,17.53
2017-11-17T16:07:23.077Z,17.73
2017-11-17T16:09:51.412Z,18.10
2017-11-17T16:12:19.717Z,18.07
2017-11-17T16:14:48.178Z,18.87
2017-11-17T16:17:16.462Z,18.97
2017-11-17T16:19:44.727Z,21.77
2017-11-17T16:22:13.025Z,22.50
2017-11-17T16:24:41.310Z,19.83
2017-11-17T16:27:10.078Z,18.60
2017-11-17T16:29:38.548Z,18.30
2017-11-17T16:32:06.983Z,18.70
2017-11-17T16:34:35.259Z,17.77
2017-11-17T16:37:03.832Z,17.93
2017-11-17T16:39:32.120Z,17.40
2017-11-17T16:42:00.377Z,16.97
2017-11-17T16:44:28.705Z,16.80
2017-11-17T16:46:57.078Z,17.93
2017-11-17T16:49:25.473Z,17.43
2017-11-17T16:51:53.703Z,17.30
2017-11-17T16:54:22.013Z,17.00
2017-11-17T16:56:50.319Z,19.00
2017-11-17T16:59:18.577Z,17.83
2017-11-17T17:01:46.856Z,18.53
2017-11-17T17:04:15.172Z,16.83
2017-11-17T17:06:43.447Z,18.67
2017-11-17T17:09:11.736Z,19.63
2017-11-17T17:11:40.070Z,17.60
2017-11-17T17:14:08.346Z,18.40
2017-11-17T17:16:36.663Z,19.47
2017-11-17T17:19:04.935Z,22.47
2017-11-17T17:21:33.235Z,20.40
2017-11-17T17:24:01.492Z,21.77
2017-11-17T17:26:30.660Z,18.63
2017-11-17T17:28:58.923Z,18.70
2017-11-17T17:31:34.687Z,19.00
2017-11-17T17:34:02.925Z,19.60
2017-11-17T17:36:31.213Z,18.00
2017-11-17T17:38:59.537Z,17.73
2017-11-17T17:41:27.791Z,21.67
2017-11-17T17:43:56.378Z,22.20
2017-11-17T17:46:24.633Z,19.10
2017-11-17T17:48:52.940Z,16.13
2017-11-17T17:51:21.230Z,16.27
2017-11-17T17:53:49.513Z,15.83
2017-11-17T17:56:17.793Z,15.87
2017-11-17T17:58:46.045Z,16.37
2017-11-17T18:01:14.337Z,23.00
2017-11-17T18:03:42.608Z,17.10
2017-11-17T18:06:10.941Z,15.90
2017-11-17T18:08:39.242Z,15.07
2017-11-17T18:11:07.515Z,14.57
2017-11-17T18:13:35.803Z,16.23
2017-11-17T18:16:04.094Z,14.73
2017-11-17T18:18:32.370Z,16.70
2017-11-17T18:21:00.682Z,17.27
2017-11-17T18:23:28.931Z,16.00
2017-11-17T18:25:57.211Z,15.00
2017-11-17T18:28:25.504Z,16.67
2017-11-17T18:30:53.839Z,16.30
2017-11-17T18:33:22.108Z,17.40
2017-11-17T18:35:50.408Z,17.57
2017-11-17T18:38:18.717Z,15.43
2017-11-17T18:40:47.018Z,15.20
2017-11-17T18:43:15.498Z,15.20
2017-11-17T18:45:44.435Z,15.50
2017-11-17T18:48:12.775Z,16.27
2017-11-17T18:50:41.063Z,16.07
2017-11-17T18:53:09.345Z,17.30
2017-11-17T18:55:37.626Z,16.70
2017-11-17T18:58:05.938Z,16.40
2017-11-17T19:00:34.234Z,16.73
2017-11-17T19:03:02.483Z,17.87
2017-11-17T19:05:30.756Z,16.00
2017-11-17T19:07:59.048Z,16.27
2017-11-17T19:10:27.324Z,17.70
2017-11-17T19:12:55.751Z,19.00
2017-11-17T19:15:24.016Z,16.90
2017-11-17T19:17:52.325Z,18.60
2017-11-17T19:20:20.629Z,19.23
2017-11-17T19:22:48.886Z,19.80
2017-11-17T19:25:17.228Z,19.60
2017-11-17T19:27:45.543Z,18.50
2017-11-17T19:30:13.818Z,18.87
2017-11-17T19:32:42.309Z,18.73
2017-11-17T19:35:10.623Z,19.03
2017-11-17T19:37:38.895Z,18.80
2017-11-17T19:40:07.226Z,18.80
2017-11-17T19:42:35.482Z,20.63
2017-11-17T19:45:04.159Z,18.30
2017-11-17T19:47:32.406Z,18.07
2017-11-17T19:50:00.699Z,19.70
2017-11-17T19:52:29.006Z,18.43
2017-11-17T19:54:57.320Z,19.37
2017-11-17T19:57:25.577Z,18.77
2017-11-17T19:59:53.852Z,18.27
2017-11-17T20:02:22.120Z,19.63
2017-11-17T20:04:50.486Z,19.70
2017-11-17T20:07:18.778Z,18.73
2017-11-17T20:09:47.048Z,18.70
2017-11-17T20:12:15.357Z,20.60
2017-11-17T20:14:43.663Z,18.70
2017-11-17T20:17:12.007Z,19.30
2017-11-17T20:19:40.259Z,21.10
2017-11-17T20:22:08.557Z,18.70
2017-11-17T20:24:36.847Z,20.03
2017-11-17T20:27:05.936Z,20.80
2017-11-17T20:29:34.205Z,19.00
2017-11-17T20:32:03.461Z,42.33
2017-11-17T20:34:31.764Z,19.13
2017-11-17T20:37:00.024Z,19.90
2017-11-17T20:39:28.277Z,20.10
2017-11-17T20:41:56.606Z,19.40
2017-11-17T20:44:25.745Z,18.93
2017-11-17T20:46:54.102Z,20.50
2017-11-17T20:49:22.429Z,20.93
2017-11-17T20:51:50.694Z,23.17
2017-11-17T20:54:18.977Z,21.83
2017-11-17T20:56:47.348Z,21.93
2017-11-17T20:59:15.706Z,20.60
2017-11-17T21:01:44.083Z,19.60
2017-11-17T21:04:12.377Z,19.97
2017-11-17T21:06:40.735Z,21.23
2017-11-17T21:09:09.074Z,20.77
2017-11-17T21:11:37.352Z,21.30
2017-11-17T21:14:06.521Z,18.10
2017-11-17T21:16:34.820Z,18.03
2017-11-17T21:19:03.144Z,17.20
2017-11-17T21:21:31.541Z,17.33
2017-11-17T21:23:59.822Z,16.57
2017-11-17T21:26:28.128Z,16.87
2017-11-17T21:28:56.414Z,17.50
2017-11-17T21:31:24.672Z,19.03
2017-11-17T21:33:52.932Z,19.03
2017-11-17T21:36:21.382Z,18.43
2017-11-17T21:38:49.807Z,19.60
2017-11-17T21:41:18.119Z,19.30
2017-11-17T21:43:46.418Z,17.93
2017-11-17T21:46:14.698Z,20.50
2017-11-17T21:48:42.991Z,19.40
2017-11-17T21:51:11.241Z,20.77
2017-11-17T21:53:39.614Z,20.80
2017-11-17T21:56:07.905Z,20.70
2017-11-17T21:58:36.181Z,18.43
2017-11-17T22:01:04.473Z,18.07
2017-11-17T22:03:32.758Z,18.27
2017-11-17T22:06:01.165Z,18.40
2017-11-17T22:08:29.421Z,18.57
2017-11-17T22:13:39.350Z,20.37
2017-11-17T22:16:07.649Z,19.53
2017-11-17T22:18:35.973Z,18.77
2017-11-17T22:21:04.275Z,19.13
2017-11-17T22:23:34.020Z,19.87
2017-11-17T22:26:02.688Z,18.83
2017-11-17T22:28:32.141Z,18.33
2017-11-17T22:31:00.489Z,18.77
2017-11-17T22:33:28.761Z,18.37
2017-11-17T22:35:57.025Z,16.13
2017-11-17T22:38:25.356Z,16.13
2017-11-17T22:40:53.637Z,15.60
2017-11-17T22:43:21.929Z,16.17
2017-11-17T22:45:50.207Z,14.07
2017-11-17T22:48:18.482Z,13.63
2017-11-17T22:50:47.097Z,14.73
2017-11-17T22:53:15.442Z,13.90
2017-11-17T22:55:43.684Z,14.77
2017-11-17T22:58:12.530Z,13.50
2017-11-17T23:00:40.818Z,14.10
2017-11-17T23:03:09.081Z,15.23
2017-11-17T23:05:37.389Z,15.53
2017-11-17T23:08:05.646Z,15.60
2017-11-17T23:10:34.023Z,16.00
2017-11-17T23:13:02.277Z,14.17
2017-11-17T23:15:30.642Z,16.20
2017-11-17T23:17:59.118Z,15.27
2017-11-17T23:20:27.414Z,15.30
2017-11-17T23:22:55.673Z,15.33
2017-11-17T23:25:23.966Z,14.47
2017-11-17T23:27:52.265Z,15.07
2017-11-17T23:30:20.516Z,13.90
2017-11-17T23:32:48.828Z,14.47
2017-11-17T23:35:17.083Z,15.50
2017-11-17T23:37:45.362Z,15.13
2017-11-17T23:40:13.673Z,15.57
2017-11-17T23:42:42.416Z,16.63
2017-11-17T23:45:10.691Z,15.80
2017-11-17T23:47:38.998Z,15.70
2017-11-17T23:50:07.251Z,16.10
2017-11-17T23:52:35.629Z,15.20
2017-11-17T23:55:03.917Z,16.47
2017-11-17T23:57:32.195Z,15.73
